createdAt,value
2022-08-05T00:00:10.190Z,14
2022-08-05T00:01:19.979Z,14
2022-08-05T00:02:12.296Z,15
2022-08-05T00:03:15.582Z,14
2022-08-05T00:04:14.061Z,14
2022-08-05T00:05:27.299Z,14
2022-08-05T00:06:22.223Z,14
2022-08-05T00:07:21.874Z,14
2022-08-05T00:08:20.102Z,14
2022-08-05T00:09:19.626Z,13
2022-08-05T00:10:20.040Z,15
2022-08-05T00:11:24.036Z,13
2022-08-05T00:12:22.060Z,13
2022-08-05T00:13:31.239Z,13
2022-08-05T00:14:26.527Z,14
2022-08-05T00:15:56.533Z,15
2022-08-05T00:16:35.800Z,13
2022-08-05T00:17:27.041Z,14
2022-08-05T00:18:28.202Z,13
2022-08-05T00:19:33.030Z,13
2022-08-05T00:20:30.100Z,13
2022-08-05T00:21:31.061Z,13
2022-08-05T00:22:32.020Z,14
2022-08-05T00:23:44.889Z,13
2022-08-05T00:24:34.060Z,14
2022-08-05T00:25:45.451Z,14
2022-08-05T00:26:36.099Z,14
2022-08-05T00:27:37.327Z,13
2022-08-05T00:28:38.143Z,13
2022-08-05T00:29:39.059Z,14
2022-08-05T00:30:41.167Z,14
2022-08-05T00:31:41.669Z,14
2022-08-05T00:32:42.082Z,13
2022-08-05T00:34:42.952Z,14
2022-08-05T00:34:55.100Z,14
2022-08-05T00:35:47.898Z,14
2022-08-05T00:37:09.296Z,13
2022-08-05T00:37:50.559Z,13
2022-08-05T00:38:48.119Z,14
2022-08-05T00:39:57.685Z,13
2022-08-05T00:40:51.873Z,13
2022-08-05T00:41:52.339Z,13
2022-08-05T00:42:52.081Z,14
2022-08-05T00:43:53.099Z,14
2022-08-05T00:44:54.182Z,13
2022-08-05T00:45:55.101Z,13
2022-08-05T00:47:01.816Z,14
2022-08-05T00:48:04.977Z,14
2022-08-05T00:48:58.120Z,13
2022-08-05T00:49:59.084Z,13
2022-08-05T00:51:00.122Z,13
2022-08-05T00:52:01.222Z,14
2022-08-05T00:53:03.079Z,15
2022-08-05T00:54:04.199Z,14
2022-08-05T00:55:05.142Z,13
2022-08-05T00:56:07.786Z,14
2022-08-05T00:57:07.160Z,14
2022-08-05T00:58:08.039Z,14
2022-08-05T00:59:09.140Z,15
2022-08-05T01:00:10.989Z,14
2022-08-05T01:03:10.045Z,14
2022-08-05T01:04:14.026Z,12
2022-08-05T01:05:12.196Z,13
2022-08-05T01:06:14.286Z,13
2022-08-05T01:07:14.094Z,14
2022-08-05T01:08:30.596Z,13
2022-08-05T01:09:17.222Z,14
2022-08-05T01:10:17.136Z,14
2022-08-05T01:11:22.039Z,13
2022-08-05T01:12:19.236Z,13
2022-08-05T01:13:22.211Z,13
2022-08-05T01:14:27.254Z,13
2022-08-05T01:15:35.201Z,14
2022-08-05T01:16:26.165Z,14
2022-08-05T01:17:24.420Z,14
2022-08-05T01:18:25.096Z,14
2022-08-05T01:19:30.329Z,14
2022-08-05T01:20:27.428Z,14
2022-08-05T01:21:37.960Z,14
2022-08-05T01:22:31.786Z,14
2022-08-05T01:23:34.649Z,13
2022-08-05T01:24:35.095Z,14
2022-08-05T01:25:40.318Z,14
2022-08-05T01:26:37.115Z,13
2022-08-05T01:27:40.982Z,13
2022-08-05T01:28:39.240Z,13
2022-08-05T01:29:40.161Z,14
2022-08-05T01:30:41.095Z,14
2022-08-05T01:31:42.483Z,14
2022-08-05T01:32:43.130Z,14
2022-08-05T01:33:49.064Z,14
2022-08-05T01:34:45.177Z,14
2022-08-05T01:35:50.478Z,14
2022-08-05T01:36:47.626Z,13
2022-08-05T01:37:48.085Z,14
2022-08-05T01:38:49.827Z,14
2022-08-05T01:39:50.121Z,14
2022-08-05T01:40:51.098Z,14
2022-08-05T01:41:52.084Z,13
2022-08-05T01:42:53.100Z,13
2022-08-05T01:43:54.142Z,13
2022-08-05T01:44:55.154Z,14
2022-08-05T01:45:56.873Z,14
2022-08-05T01:46:57.084Z,14
2022-08-05T01:47:58.102Z,14
2022-08-05T01:48:59.137Z,14
2022-08-05T01:50:02.382Z,13
2022-08-05T01:51:12.205Z,14
2022-08-05T01:52:02.080Z,15
2022-08-05T01:53:03.086Z,13
2022-08-05T01:54:04.063Z,14
2022-08-05T01:55:05.570Z,15
2022-08-05T01:56:06.047Z,15
2022-08-05T01:58:08.748Z,14
2022-08-05T01:58:15.729Z,14
2022-08-05T01:59:09.127Z,15
2022-08-05T02:00:11.787Z,15
2022-08-05T02:01:12.429Z,14
2022-08-05T02:02:14.199Z,15
2022-08-05T02:03:16.465Z,15
2022-08-05T02:04:16.095Z,14
2022-08-05T02:05:17.595Z,14
2022-08-05T02:06:33.690Z,15
2022-08-05T02:07:21.722Z,15
2022-08-05T02:08:30.991Z,15
2022-08-05T02:09:22.094Z,15
2022-08-05T02:10:28.390Z,15
2022-08-05T02:11:24.137Z,14
2022-08-05T02:12:25.227Z,14
2022-08-05T02:13:26.136Z,15
2022-08-05T02:14:27.155Z,14
2022-08-05T02:15:31.205Z,15
2022-08-05T02:16:29.050Z,14
2022-08-05T02:18:29.292Z,14
2022-08-05T02:18:35.123Z,15
2022-08-05T02:19:33.429Z,14
2022-08-05T02:20:33.174Z,13
2022-08-05T02:21:42.921Z,13
2022-08-05T02:22:35.100Z,13
2022-08-05T02:23:36.134Z,14
2022-08-05T02:24:37.115Z,14
2022-08-05T02:25:49.632Z,13
2022-08-05T02:26:39.125Z,14
2022-08-05T02:27:58.808Z,14
2022-08-05T02:28:41.600Z,14
2022-08-05T02:29:59.351Z,15
2022-08-05T02:30:51.626Z,14
2022-08-05T02:31:44.195Z,14
2022-08-05T02:32:45.095Z,14
2022-08-05T02:33:46.195Z,14
2022-08-05T02:34:51.690Z,15
2022-08-05T02:35:49.948Z,14
2022-08-05T02:36:49.214Z,13
2022-08-05T02:37:52.693Z,14
2022-08-05T02:38:52.749Z,14
2022-08-05T02:39:52.230Z,15
2022-08-05T02:40:53.273Z,14
2022-08-05T02:41:58.324Z,15
2022-08-05T02:42:56.134Z,15
2022-08-05T02:44:03.065Z,15
2022-08-05T02:44:58.121Z,15
2022-08-05T02:45:59.255Z,15
2022-08-05T02:47:01.306Z,15
2022-08-05T02:48:07.760Z,15
2022-08-05T02:49:03.154Z,15
2022-08-05T02:50:04.195Z,14
2022-08-05T02:51:05.058Z,14
2022-08-05T02:52:06.115Z,14
2022-08-05T02:53:07.154Z,14
2022-08-05T02:54:08.093Z,15
2022-08-05T02:55:10.787Z,15
2022-08-05T02:56:11.199Z,15
2022-08-05T02:58:09.622Z,15
2022-08-05T02:58:14.265Z,15
2022-08-05T02:59:15.114Z,15
2022-08-05T03:00:16.255Z,15
2022-08-05T03:01:17.318Z,15
2022-08-05T03:02:19.219Z,17
2022-08-05T03:03:20.214Z,15
2022-08-05T03:04:23.075Z,15
2022-08-05T03:06:52.851Z,16
2022-08-05T03:06:53.422Z,15
2022-08-05T03:07:40.786Z,15
2022-08-05T03:08:29.711Z,16
2022-08-05T03:09:36.628Z,15
2022-08-05T03:10:31.136Z,15
2022-08-05T03:11:47.633Z,15
2022-08-05T03:12:33.195Z,16
2022-08-05T03:13:51.326Z,15
2022-08-05T03:14:35.154Z,15
2022-08-05T03:15:36.253Z,15
2022-08-05T03:16:37.214Z,14
2022-08-05T03:17:40.061Z,14
2022-08-05T03:18:39.156Z,14
2022-08-05T03:19:41.813Z,15
2022-08-05T03:20:44.685Z,14
2022-08-05T03:21:49.054Z,14
2022-08-05T03:22:43.981Z,15
2022-08-05T03:23:45.594Z,15
2022-08-05T03:24:46.891Z,15
2022-08-05T03:26:04.194Z,16
2022-08-05T03:26:49.358Z,15
2022-08-05T03:27:59.168Z,16
2022-08-05T03:28:50.134Z,15
2022-08-05T03:30:07.127Z,15
2022-08-05T03:31:02.095Z,16
2022-08-05T03:32:03.275Z,15
2022-08-05T03:33:04.136Z,15
2022-08-05T03:34:05.200Z,15
2022-08-05T03:35:06.174Z,15
2022-08-05T03:36:07.135Z,15
2022-08-05T03:37:08.174Z,15
2022-08-05T03:38:09.147Z,15
2022-08-05T03:39:12.880Z,17
2022-08-05T03:40:11.947Z,16
2022-08-05T03:41:12.414Z,15
2022-08-05T03:42:14.195Z,17
2022-08-05T03:43:16.190Z,17
2022-08-05T03:44:19.761Z,17
2022-08-05T03:45:21.353Z,16
2022-08-05T03:46:18.214Z,16
2022-08-05T03:47:19.254Z,17
2022-08-05T03:48:21.864Z,16
2022-08-05T03:49:21.134Z,17
2022-08-05T03:50:22.133Z,17
2022-08-05T03:52:35.659Z,16
2022-08-05T03:52:36.095Z,17
2022-08-05T03:54:59.658Z,16
2022-08-05T03:55:00.617Z,15
2022-08-05T03:55:54.317Z,17
2022-08-05T03:56:31.798Z,17
2022-08-05T03:57:41.142Z,17
2022-08-05T03:58:30.214Z,16
2022-08-05T03:59:46.591Z,16
2022-08-05T04:00:32.291Z,17
2022-08-05T04:01:34.243Z,15
2022-08-05T04:02:38.006Z,17
2022-08-05T04:03:38.067Z,18
2022-08-05T04:04:37.194Z,18
2022-08-05T04:05:38.502Z,17
2022-08-05T04:06:47.684Z,18
2022-08-05T04:07:58.442Z,18
2022-08-05T04:08:41.195Z,18
2022-08-05T04:09:53.355Z,16
2022-08-05T04:10:43.174Z,17
2022-08-05T04:11:47.196Z,17
2022-08-05T04:12:45.194Z,17
2022-08-05T04:13:49.646Z,17
2022-08-05T04:14:47.454Z,18
2022-08-05T04:15:52.595Z,17
2022-08-05T04:16:50.181Z,18
2022-08-05T04:17:55.990Z,19
2022-08-05T04:18:53.854Z,17
2022-08-05T04:19:54.400Z,18
2022-08-05T04:20:54.176Z,18
2022-08-05T04:22:05.440Z,18
2022-08-05T04:22:56.195Z,18
2022-08-05T04:24:06.143Z,18
2022-08-05T04:24:58.254Z,17
2022-08-05T04:26:00.790Z,16
2022-08-05T04:27:00.233Z,16
2022-08-05T04:28:05.560Z,18
2022-08-05T04:29:05.565Z,18
2022-08-05T04:30:03.624Z,18
2022-08-05T04:31:08.347Z,18
2022-08-05T04:32:06.194Z,18
2022-08-05T04:33:07.193Z,16
2022-08-05T04:34:17.803Z,18
2022-08-05T04:35:13.486Z,18
2022-08-05T04:36:11.501Z,17
2022-08-05T04:37:11.247Z,16
2022-08-05T04:38:12.494Z,18
2022-08-05T04:39:14.225Z,17
2022-08-05T04:40:19.372Z,17
2022-08-05T04:41:16.195Z,16
2022-08-05T04:42:17.317Z,16
2022-08-05T04:43:21.866Z,16
2022-08-05T04:44:21.112Z,16
2022-08-05T04:45:23.141Z,16
2022-08-05T04:46:28.082Z,17
2022-08-05T04:47:23.374Z,20
2022-08-05T04:48:27.168Z,18
2022-08-05T04:49:38.258Z,19
2022-08-05T04:50:34.609Z,18
2022-08-05T04:51:30.459Z,19
2022-08-05T04:52:29.169Z,18
2022-08-05T04:53:33.455Z,17
2022-08-05T04:54:31.743Z,17
2022-08-05T04:56:14.337Z,17
2022-08-05T04:56:37.154Z,17
2022-08-05T04:57:36.999Z,19
2022-08-05T04:58:36.183Z,17
2022-08-05T04:59:38.719Z,17
2022-08-05T05:00:38.272Z,18
2022-08-05T05:02:06.531Z,17
2022-08-05T05:02:41.632Z,17
2022-08-05T05:03:41.730Z,18
2022-08-05T05:04:43.798Z,16
2022-08-05T05:06:36.287Z,16
2022-08-05T05:06:45.032Z,17
2022-08-05T05:07:45.606Z,17
2022-08-05T05:08:50.076Z,17
2022-08-05T05:09:47.165Z,18
2022-08-05T05:10:52.611Z,19
2022-08-05T05:11:54.203Z,18
2022-08-05T05:12:50.530Z,18
2022-08-05T05:13:51.313Z,21
2022-08-05T05:14:52.241Z,18
2022-08-05T05:15:57.719Z,19
2022-08-05T05:16:54.477Z,18
2022-08-05T05:17:55.989Z,17
2022-08-05T05:19:16.708Z,21
2022-08-05T05:19:57.153Z,19
2022-08-05T05:20:58.616Z,18
2022-08-05T05:21:59.213Z,18
2022-08-05T05:23:03.196Z,19
2022-08-05T05:24:02.658Z,19
2022-08-05T05:25:16.260Z,18
2022-08-05T05:26:03.194Z,19
2022-08-05T05:27:04.216Z,18
2022-08-05T05:28:05.240Z,18
2022-08-05T05:29:10.195Z,19
2022-08-05T05:30:07.191Z,18
2022-08-05T05:31:08.945Z,21
2022-08-05T05:32:12.362Z,18
2022-08-05T05:33:15.861Z,18
2022-08-05T05:34:11.295Z,18
2022-08-05T05:35:12.594Z,19
2022-08-05T05:36:14.614Z,19
2022-08-05T05:37:15.280Z,18
2022-08-05T05:38:23.015Z,18
2022-08-05T05:39:19.078Z,18
2022-08-05T05:40:19.829Z,19
2022-08-05T05:41:20.254Z,18
2022-08-05T05:42:21.226Z,21
2022-08-05T05:43:28.293Z,19
2022-08-05T05:44:37.090Z,19
2022-08-05T05:45:24.526Z,18
2022-08-05T05:46:25.196Z,18
2022-08-05T05:47:30.146Z,17
2022-08-05T05:48:27.888Z,17
2022-08-05T05:49:28.214Z,19
2022-08-05T05:50:29.253Z,18
2022-08-05T05:51:30.253Z,18
2022-08-05T05:52:33.161Z,18
2022-08-05T05:53:32.341Z,18
2022-08-05T05:54:35.052Z,19
2022-08-05T05:55:51.151Z,21
2022-08-05T05:56:36.314Z,19
2022-08-05T05:57:42.675Z,19
2022-08-05T05:58:38.296Z,19
2022-08-05T05:59:40.215Z,18
2022-08-05T06:00:40.207Z,19
2022-08-05T06:01:41.295Z,19
2022-08-05T06:02:42.361Z,19
2022-08-05T06:03:54.288Z,19
2022-08-05T06:04:44.352Z,19
2022-08-05T06:05:45.373Z,18
2022-08-05T06:06:46.770Z,19
2022-08-05T06:07:57.485Z,18
2022-08-05T06:08:49.141Z,18
2022-08-05T06:10:01.735Z,17
2022-08-05T06:10:52.400Z,18
2022-08-05T06:11:59.039Z,18
2022-08-05T06:12:53.254Z,18
2022-08-05T06:13:55.490Z,18
2022-08-05T06:14:55.294Z,19
2022-08-05T06:16:28.034Z,19
2022-08-05T06:16:57.850Z,19
2022-08-05T06:17:58.234Z,19
2022-08-05T06:18:59.899Z,19
2022-08-05T06:20:00.303Z,18
2022-08-05T06:21:01.234Z,19
2022-08-05T06:22:02.294Z,19
2022-08-05T06:23:04.000Z,21
2022-08-05T06:24:04.334Z,19
2022-08-05T06:25:24.792Z,18
2022-08-05T06:26:13.158Z,18
2022-08-05T06:27:13.110Z,19
2022-08-05T06:28:09.950Z,19
2022-08-05T06:29:24.708Z,19
2022-08-05T06:30:16.879Z,19
2022-08-05T06:31:17.804Z,18
2022-08-05T06:32:21.592Z,18
2022-08-05T06:33:19.126Z,21
2022-08-05T06:34:15.784Z,19
2022-08-05T06:35:22.033Z,21
2022-08-05T06:36:17.373Z,21
2022-08-05T06:37:18.440Z,21
2022-08-05T06:38:35.762Z,22
2022-08-05T06:39:21.827Z,22
2022-08-05T06:40:27.824Z,21
2022-08-05T06:41:23.294Z,22
2022-08-05T06:42:24.353Z,19
2022-08-05T06:43:52.026Z,21
2022-08-05T06:44:26.364Z,22
2022-08-05T06:45:44.298Z,21
2022-08-05T06:46:29.963Z,23
2022-08-05T06:47:30.230Z,21
2022-08-05T06:48:47.508Z,22
2022-08-05T06:50:00.934Z,21
2022-08-05T06:50:32.282Z,21
2022-08-05T06:51:33.275Z,19
2022-08-05T06:52:36.515Z,21
2022-08-05T06:53:39.214Z,19
2022-08-05T06:54:36.316Z,21
2022-08-05T06:55:37.293Z,21
2022-08-05T06:56:38.294Z,21
2022-08-05T06:57:56.981Z,22
2022-08-05T06:58:40.517Z,23
2022-08-05T06:59:42.189Z,22
2022-08-05T07:00:42.355Z,21
2022-08-05T07:01:43.268Z,21
2022-08-05T07:02:44.362Z,22
2022-08-05T07:03:45.382Z,22
2022-08-05T07:04:46.294Z,21
2022-08-05T07:05:47.393Z,23
2022-08-05T07:06:50.251Z,23
2022-08-05T07:07:49.324Z,22
2022-08-05T07:08:51.750Z,22
2022-08-05T07:09:55.610Z,22
2022-08-05T07:10:54.026Z,21
2022-08-05T07:11:54.413Z,22
2022-08-05T07:12:56.478Z,22
2022-08-05T07:13:59.981Z,21
2022-08-05T07:14:58.454Z,21
2022-08-05T07:16:00.713Z,19
2022-08-05T07:17:58.020Z,21
2022-08-05T07:18:08.157Z,18
2022-08-05T07:19:02.435Z,19
2022-08-05T07:20:31.984Z,19
2022-08-05T07:21:05.748Z,19
2022-08-05T07:22:07.334Z,19
2022-08-05T07:23:08.373Z,21
2022-08-05T07:24:11.355Z,21
2022-08-05T07:25:22.272Z,22
2022-08-05T07:26:13.264Z,23
2022-08-05T07:27:12.774Z,-1
2022-08-05T07:28:17.300Z,22
2022-08-05T07:29:15.314Z,23
2022-08-05T07:30:28.384Z,24
2022-08-05T07:31:17.417Z,23
2022-08-05T07:32:18.394Z,22
2022-08-05T07:33:20.409Z,24
2022-08-05T07:34:25.221Z,22
2022-08-05T07:35:56.488Z,22
2022-08-05T07:36:23.457Z,22
2022-08-05T07:37:24.621Z,19
2022-08-05T07:38:26.543Z,19
2022-08-05T07:40:04.830Z,19
2022-08-05T07:40:32.758Z,21
2022-08-05T07:42:07.604Z,19
2022-08-05T07:42:31.594Z,22
2022-08-05T07:43:30.394Z,19
2022-08-05T07:44:31.252Z,19
2022-08-05T07:45:57.951Z,19
2022-08-05T07:46:33.740Z,19
2022-08-05T07:47:42.449Z,19
2022-08-05T07:48:35.374Z,19
2022-08-05T07:49:43.436Z,21
2022-08-05T07:50:37.394Z,21
2022-08-05T07:51:41.194Z,21
2022-08-05T07:52:39.334Z,21
2022-08-05T07:53:50.216Z,21
2022-08-05T07:54:41.439Z,24
2022-08-05T07:55:44.738Z,22
2022-08-05T07:57:01.039Z,25
2022-08-05T07:57:59.049Z,24
2022-08-05T07:58:55.160Z,22
2022-08-05T07:59:46.790Z,17
2022-08-05T08:00:47.380Z,18
2022-08-05T08:01:51.936Z,18
2022-08-05T08:03:14.419Z,18
2022-08-05T08:03:51.281Z,19
2022-08-05T08:04:51.404Z,19
2022-08-05T08:05:52.459Z,19
2022-08-05T08:06:53.335Z,18
2022-08-05T08:07:59.339Z,19
2022-08-05T08:08:55.415Z,18
2022-08-05T08:09:57.048Z,18
2022-08-05T08:10:59.064Z,17
2022-08-05T08:12:06.355Z,19
2022-08-05T08:13:02.316Z,18
2022-08-05T08:14:03.459Z,18
2022-08-05T08:15:04.680Z,21
2022-08-05T08:16:34.288Z,18
2022-08-05T08:17:07.375Z,18
2022-08-05T08:18:14.056Z,18
2022-08-05T08:19:09.406Z,18
2022-08-05T08:20:23.183Z,18
2022-08-05T08:21:15.937Z,18
2022-08-05T08:22:15.945Z,18
2022-08-05T08:24:00.781Z,18
2022-08-05T08:24:15.374Z,17
2022-08-05T08:25:17.812Z,19
2022-08-05T08:26:26.509Z,-1
2022-08-05T08:27:19.376Z,18
2022-08-05T08:28:35.838Z,17
2022-08-05T08:29:22.314Z,17
2022-08-05T08:30:30.339Z,17
2022-08-05T08:31:23.354Z,18
2022-08-05T08:32:24.609Z,18
2022-08-05T08:33:25.485Z,18
2022-08-05T08:34:30.045Z,17
2022-08-05T08:35:27.415Z,18
2022-08-05T08:36:37.275Z,17
2022-08-05T08:37:29.382Z,18
2022-08-05T08:38:32.353Z,17
2022-08-05T08:39:31.394Z,16
2022-08-05T08:40:32.442Z,17
2022-08-05T08:41:51.468Z,16
2022-08-05T08:42:46.902Z,16
2022-08-05T08:45:01.645Z,16
2022-08-05T08:45:22.037Z,17
2022-08-05T08:45:38.496Z,17
2022-08-05T08:46:39.397Z,18
2022-08-05T08:47:47.900Z,17
2022-08-05T08:49:05.165Z,17
2022-08-05T08:50:08.141Z,16
2022-08-05T08:51:03.140Z,17
2022-08-05T08:52:02.723Z,16
2022-08-05T08:52:47.306Z,14
2022-08-05T08:53:47.295Z,18
2022-08-05T08:54:48.422Z,16
2022-08-05T08:56:02.383Z,18
2022-08-05T08:56:51.413Z,17
2022-08-05T08:57:58.204Z,18
2022-08-05T08:58:53.346Z,17
2022-08-05T08:59:55.962Z,18
2022-08-05T09:00:55.436Z,18
2022-08-05T09:01:57.167Z,18
2022-08-05T09:02:57.515Z,17
2022-08-05T09:03:59.397Z,17
2022-08-05T09:05:17.035Z,17
2022-08-05T09:06:08.260Z,17
2022-08-05T09:07:02.394Z,17
2022-08-05T09:08:03.474Z,17
2022-08-05T09:09:05.065Z,16
2022-08-05T09:10:06.526Z,16
2022-08-05T09:11:08.426Z,16
2022-08-05T09:12:20.356Z,18
2022-08-05T09:13:10.323Z,17
2022-08-05T09:14:55.446Z,17
2022-08-05T09:15:12.980Z,16
2022-08-05T09:16:14.597Z,19
2022-08-05T09:17:41.531Z,18
2022-08-05T09:18:16.462Z,17
2022-08-05T09:19:17.622Z,18
2022-08-05T09:20:21.004Z,15
2022-08-05T09:21:20.540Z,17
2022-08-05T09:22:23.544Z,18
2022-08-05T09:23:22.339Z,17
2022-08-05T09:24:24.256Z,17
2022-08-05T09:26:00.490Z,17
2022-08-05T09:26:25.482Z,17
2022-08-05T09:28:03.426Z,17
2022-08-05T09:28:31.770Z,18
2022-08-05T09:29:30.693Z,17
2022-08-05T09:30:29.417Z,16
2022-08-05T09:32:38.879Z,16
2022-08-05T09:32:40.594Z,16
2022-08-05T09:33:35.053Z,17
2022-08-05T09:34:33.399Z,16
2022-08-05T09:35:34.435Z,16
2022-08-05T09:36:35.573Z,16
2022-08-05T09:38:13.143Z,17
2022-08-05T09:38:38.455Z,17
2022-08-05T09:39:44.908Z,17
2022-08-05T09:40:40.375Z,17
2022-08-05T09:41:41.535Z,16
2022-08-05T09:42:42.379Z,16
2022-08-05T09:43:43.457Z,16
2022-08-05T09:44:44.462Z,15
2022-08-05T09:46:05.484Z,16
2022-08-05T09:46:52.000Z,15
2022-08-05T09:47:55.778Z,15
2022-08-05T09:48:55.278Z,17
2022-08-05T09:49:54.533Z,16
2022-08-05T09:50:50.383Z,18
2022-08-05T09:51:51.474Z,17
2022-08-05T09:52:52.879Z,15
2022-08-05T09:53:55.501Z,16
2022-08-05T09:54:54.414Z,15
2022-08-05T09:56:03.895Z,16
2022-08-05T09:56:57.447Z,15
2022-08-05T09:57:59.693Z,16
2022-08-05T09:58:59.420Z,17
2022-08-05T10:00:02.703Z,17
2022-08-05T10:01:01.405Z,16
2022-08-05T10:02:02.527Z,15
2022-08-05T10:03:03.521Z,16
2022-08-05T10:04:04.574Z,14
2022-08-05T10:05:05.454Z,14
2022-08-05T10:06:07.721Z,16
2022-08-05T10:07:14.241Z,14
2022-08-05T10:08:11.555Z,15
2022-08-05T10:09:09.836Z,15
2022-08-05T10:10:14.753Z,14
2022-08-05T10:11:12.957Z,14
2022-08-05T10:12:18.425Z,15
2022-08-05T10:13:15.435Z,14
2022-08-05T10:14:16.482Z,14
2022-08-05T10:15:19.984Z,14
2022-08-05T10:16:18.474Z,14
2022-08-05T10:17:36.993Z,14
2022-08-05T10:18:20.444Z,15
2022-08-05T10:19:23.385Z,15
2022-08-05T10:20:22.455Z,14
2022-08-05T10:21:23.434Z,13
2022-08-05T10:22:29.433Z,14
2022-08-05T10:23:34.863Z,14
2022-08-05T10:24:28.590Z,14
2022-08-05T10:25:29.501Z,13
2022-08-05T10:26:31.565Z,16
2022-08-05T10:27:38.795Z,16
2022-08-05T10:28:32.599Z,15
2022-08-05T10:30:06.272Z,16
2022-08-05T10:30:41.639Z,15
2022-08-05T10:32:50.045Z,14
2022-08-05T10:32:50.386Z,14
2022-08-05T10:33:39.495Z,15
2022-08-05T10:34:40.799Z,13
2022-08-05T10:35:44.430Z,13
2022-08-05T10:36:42.474Z,13
2022-08-05T10:37:44.883Z,14
2022-08-05T10:38:45.153Z,14
2022-08-05T10:39:58.850Z,15
2022-08-05T10:40:47.515Z,14
2022-08-05T10:41:48.478Z,15
2022-08-05T10:42:49.433Z,14
2022-08-05T10:43:50.433Z,13
2022-08-05T10:44:51.414Z,15
2022-08-05T10:45:52.495Z,15
2022-08-05T10:46:54.167Z,14
2022-08-05T10:48:29.292Z,15
2022-08-05T10:48:58.217Z,13
2022-08-05T10:50:20.357Z,14
2022-08-05T10:50:57.553Z,14
2022-08-05T10:52:00.022Z,14
2022-08-05T10:52:59.605Z,13
2022-08-05T10:54:00.715Z,15
2022-08-05T10:55:01.462Z,15
2022-08-05T10:56:03.380Z,15
2022-08-05T10:57:03.434Z,16
2022-08-05T10:58:04.514Z,14
2022-08-05T10:59:06.903Z,15
2022-08-05T11:00:13.507Z,14
2022-08-05T11:01:08.474Z,14
2022-08-05T11:02:14.343Z,15
2022-08-05T11:03:22.916Z,15
2022-08-05T11:04:11.539Z,14
2022-08-05T11:05:13.525Z,13
2022-08-05T11:06:14.775Z,15
2022-08-05T11:07:16.247Z,15
2022-08-05T11:08:27.590Z,13
2022-08-05T11:09:17.599Z,14
2022-08-05T11:10:19.496Z,15
2022-08-05T11:11:20.514Z,16
2022-08-05T11:12:21.847Z,15
2022-08-05T11:13:23.514Z,15
2022-08-05T11:14:37.236Z,14
2022-08-05T11:15:59.638Z,16
2022-08-05T11:16:34.150Z,15
2022-08-05T11:17:58.359Z,15
2022-08-05T11:18:29.675Z,15
2022-08-05T11:20:11.673Z,14
2022-08-05T11:20:30.486Z,16
2022-08-05T11:21:31.575Z,16
2022-08-05T11:22:33.494Z,16
2022-08-05T11:24:03.708Z,15
2022-08-05T11:24:37.074Z,15
2022-08-05T11:26:03.972Z,16
2022-08-05T11:26:39.495Z,17
2022-08-05T11:27:45.877Z,14
2022-08-05T11:28:41.494Z,14
2022-08-05T11:29:42.474Z,15
2022-08-05T11:30:43.514Z,15
2022-08-05T11:31:54.920Z,15
2022-08-05T11:32:47.859Z,15
2022-08-05T11:33:48.045Z,16
2022-08-05T11:34:51.203Z,16
2022-08-05T11:36:04.545Z,14
2022-08-05T11:36:52.701Z,14
2022-08-05T11:38:26.922Z,14
2022-08-05T11:38:54.871Z,14
2022-08-05T11:40:00.898Z,15
2022-08-05T11:41:00.771Z,15
2022-08-05T11:42:02.185Z,15
2022-08-05T11:42:58.641Z,15
2022-08-05T11:44:05.329Z,14
2022-08-05T11:45:01.544Z,16
2022-08-05T11:46:15.849Z,17
2022-08-05T11:47:10.378Z,14
2022-08-05T11:48:04.674Z,15
2022-08-05T11:49:07.962Z,15
2022-08-05T11:50:08.656Z,13
2022-08-05T11:51:10.873Z,15
2022-08-05T11:52:12.208Z,16
2022-08-05T11:53:12.556Z,15
2022-08-05T11:54:13.862Z,13
2022-08-05T11:55:14.514Z,14
2022-08-05T11:56:15.522Z,13
2022-08-05T11:57:24.610Z,13
2022-08-05T11:58:17.748Z,14
2022-08-05T11:59:21.269Z,14
2022-08-05T12:00:19.694Z,15
2022-08-05T12:01:21.503Z,15
2022-08-05T12:02:24.355Z,15
2022-08-05T12:03:24.235Z,14
2022-08-05T12:04:24.474Z,14
2022-08-05T12:05:28.662Z,14
2022-08-05T12:06:26.556Z,14
2022-08-05T12:08:02.597Z,15
2022-08-05T12:08:28.584Z,15
2022-08-05T12:09:37.864Z,15
2022-08-05T12:10:38.310Z,15
2022-08-05T12:11:39.979Z,15
2022-08-05T12:12:32.455Z,14
2022-08-05T12:13:49.134Z,15
2022-08-05T12:14:34.514Z,15
2022-08-05T12:15:36.007Z,14
2022-08-05T12:16:38.323Z,14
2022-08-05T12:17:57.912Z,14
2022-08-05T12:18:39.088Z,14
2022-08-05T12:20:16.477Z,13
2022-08-05T12:20:40.716Z,13
2022-08-05T12:21:41.606Z,15
2022-08-05T12:22:46.105Z,14
2022-08-05T12:23:45.603Z,14
2022-08-05T12:24:49.363Z,13
2022-08-05T12:25:47.530Z,14
2022-08-05T12:26:48.484Z,15
2022-08-05T12:27:52.912Z,12
2022-08-05T12:28:51.573Z,12
2022-08-05T12:29:53.322Z,14
2022-08-05T12:30:53.550Z,14
2022-08-05T12:31:54.717Z,14
2022-08-05T12:32:56.239Z,14
2022-08-05T12:33:56.593Z,14
2022-08-05T12:34:57.556Z,14
2022-08-05T12:35:58.568Z,14
2022-08-05T12:36:59.515Z,14
2022-08-05T12:38:00.594Z,14
2022-08-05T12:39:01.550Z,15
2022-08-05T12:40:03.461Z,16
2022-08-05T12:41:03.574Z,15
2022-08-05T12:42:04.596Z,15
2022-08-05T12:43:06.562Z,14
2022-08-05T12:44:11.513Z,14
2022-08-05T12:45:08.847Z,14
2022-08-05T12:46:12.443Z,14
2022-08-05T12:47:12.277Z,13
2022-08-05T12:48:17.765Z,13
2022-08-05T12:49:14.148Z,15
2022-08-05T12:50:14.593Z,14
2022-08-05T12:51:21.581Z,16
2022-08-05T12:52:19.811Z,14
2022-08-05T12:53:17.657Z,14
2022-08-05T12:54:23.320Z,14
2022-08-05T12:55:22.775Z,14
2022-08-05T12:56:24.545Z,13
2022-08-05T12:57:23.205Z,14
2022-08-05T12:58:39.743Z,14
2022-08-05T12:59:27.737Z,14
2022-08-05T13:01:59.126Z,14
2022-08-05T13:01:59.299Z,14
2022-08-05T13:02:27.410Z,14
2022-08-05T13:03:27.559Z,13
2022-08-05T13:04:28.574Z,13
2022-08-05T13:05:33.943Z,13
2022-08-05T13:06:30.551Z,13
2022-08-05T13:07:56.423Z,13
2022-08-05T13:08:32.797Z,13
2022-08-05T13:09:33.545Z,13
2022-08-05T13:10:34.575Z,13
2022-08-05T13:11:47.109Z,15
2022-08-05T13:12:36.612Z,14
2022-08-05T13:14:04.332Z,14
2022-08-05T13:14:38.466Z,13
2022-08-05T13:15:42.311Z,16
2022-08-05T13:16:40.581Z,13
2022-08-05T13:17:42.546Z,15
2022-08-05T13:18:42.653Z,15
2022-08-05T13:19:52.551Z,15
2022-08-05T13:20:44.600Z,13
2022-08-05T13:21:48.130Z,13
2022-08-05T13:22:46.634Z,14
2022-08-05T13:23:50.445Z,16
2022-08-05T13:24:57.130Z,15
2022-08-05T13:25:51.366Z,14
2022-08-05T13:26:51.563Z,14
2022-08-05T13:27:52.636Z,14
2022-08-05T13:28:53.574Z,15
2022-08-05T13:29:59.682Z,14
2022-08-05T13:30:57.170Z,14
2022-08-05T13:32:03.628Z,15
2022-08-05T13:33:01.020Z,14
2022-08-05T13:34:20.875Z,15
2022-08-05T13:35:01.697Z,14
2022-08-05T13:36:02.661Z,15
2022-08-05T13:37:03.693Z,15
2022-08-05T13:38:04.820Z,14
2022-08-05T13:39:08.561Z,14
2022-08-05T13:40:14.833Z,14
2022-08-05T13:41:08.564Z,13
2022-08-05T13:42:14.118Z,13
2022-08-05T13:43:12.031Z,13
2022-08-05T13:44:11.535Z,14
2022-08-05T13:45:12.564Z,14
2022-08-05T13:46:14.785Z,15
2022-08-05T13:47:28.110Z,14
2022-08-05T13:48:56.475Z,15
2022-08-05T13:49:19.541Z,14
2022-08-05T13:50:20.620Z,14
2022-08-05T13:51:21.535Z,14
2022-08-05T13:52:29.018Z,14
2022-08-05T13:53:23.573Z,14
2022-08-05T13:54:25.058Z,13
2022-08-05T13:55:40.642Z,14
2022-08-05T13:56:26.583Z,14
2022-08-05T13:57:27.594Z,15
2022-08-05T13:58:30.650Z,16
2022-08-05T13:59:30.787Z,15
2022-08-05T14:00:31.575Z,15
2022-08-05T14:01:36.356Z,15
2022-08-05T14:02:34.798Z,14
2022-08-05T14:03:36.658Z,15
2022-08-05T14:04:37.674Z,15
2022-08-05T14:05:48.712Z,14
2022-08-05T14:06:39.558Z,16
2022-08-05T14:07:56.589Z,15
2022-08-05T14:08:41.716Z,15
2022-08-05T14:09:46.262Z,16
2022-08-05T14:10:44.581Z,14
2022-08-05T14:12:00.272Z,13
2022-08-05T14:12:48.525Z,14
2022-08-05T14:13:47.958Z,14
2022-08-05T14:14:48.696Z,14
2022-08-05T14:16:04.110Z,14
2022-08-05T14:16:51.574Z,14
2022-08-05T14:17:55.019Z,14
2022-08-05T14:18:53.503Z,14
2022-08-05T14:19:56.052Z,14
2022-08-05T14:20:55.693Z,14
2022-08-05T14:22:08.249Z,14
2022-08-05T14:22:59.574Z,13
2022-08-05T14:24:00.821Z,13
2022-08-05T14:25:01.615Z,14
2022-08-05T14:26:02.774Z,14
2022-08-05T14:27:17.330Z,15
2022-08-05T14:28:04.635Z,14
2022-08-05T14:29:05.675Z,15
2022-08-05T14:30:19.053Z,16
2022-08-05T14:31:10.011Z,15
2022-08-05T14:32:13.081Z,15
2022-08-05T14:33:11.592Z,15